Gorham, NH

9:47 PM EST on January 25, 2015 (GMT -0500)
Berlin Municipal | Change Station
CLOSE
Current Station
Airport
Location: Berlin,
Elevation: 1158 ft
Nearby Weather Stations
Active Advisory: Winter Storm Warning

Elev 1158 ft 44.58 °N, 71.18 °W | Updated 55 minutes ago

Clear
Clear
3 °F
Feels Like -10 °F
N
8
Wind Variable Wind from West

Today
High -- | Low -- °F
--% Chance of Precip.
Yesterday
High -- | Low -- °F
Precip. -- in
7:11 AM 4:44 PM
Waxing Crescent, 38% visible
Pressure 29.99 in
Visibility 10.0 miles
Clouds Clear
Windchill -10 °F
Dew Point -7 °F
Humidity 63%
Rainfall 0.01 in
Snow Depth Not available.
UV 0 out of 12
Pollen .10 out of 12
Air Quality Not available.
Flu Activity Not available.
METAR KBML 260152Z AUTO 28007KT 260V330 10SM CLR M16/M22 A2992 RMK AO2 SLP156 T11611217

More Conditions Fewer Conditions

Pressure 29.99 in
Visibility 10.0 miles
Clouds Clear
Windchill -10 °F
Dew Point -7 °F
Humidity 63%
Rainfall 0.01 in
Snow Depth Not available.
UV 0 out of 12
Pollen .10 out of 12
Air Quality Not available.
Flu Activity Not available.
METAR KBML 260152Z AUTO 28007KT 260V330 10SM CLR M16/M22 A2992 RMK AO2 SLP156 T11611217

More Conditions Fewer Conditions

10-Day Weather Forecast

Almanac

Astronomy

Jan. 25, 2015 Rise Set
Actual Time
Civil Twilight
Nautical Twilight
Astronomical Twilight
Moon
Length of Visible Light
Length of Day
Tomorrow will be .
, % of the Moon is Illuminated

Today's Extremes

State Highs State Lows

Community

WunderPhotos

Upload Photos

1,790,085 photos uploaded!

WunderBlogs® & News

Nearby

Air Quality

  Air Quality AQ Index Pollutant
Not available.

Snow Depth

Station Depth Elevation

Earthquake Activity

City Distance Mag. Time & Date
Minimum magnitude displayed is 2.5.

Coastal Water Temperatures

Place Temperature

Nearby Weather Stations